createdAt,value
2024-03-05T00:00:12.059Z,20.02
2024-03-05T00:02:42.861Z,12.07
2024-03-05T00:05:10.750Z,11.87
2024-03-05T00:07:37.390Z,11.43
2024-03-05T00:10:04.507Z,6.45
2024-03-05T00:12:31.969Z,6.00
2024-03-05T00:14:58.402Z,6.63
2024-03-05T00:17:24.955Z,6.00
2024-03-05T00:19:52.083Z,4.40
2024-03-05T00:22:19.426Z,5.13
2024-03-05T00:24:46.127Z,6.15
2024-03-05T00:27:12.935Z,6.25
2024-03-05T00:29:39.388Z,6.50
2024-03-05T00:32:06.281Z,6.93
2024-03-05T00:34:32.796Z,4.18
2024-03-05T00:36:59.305Z,5.93
2024-03-05T00:39:25.811Z,3.38
2024-03-05T00:41:52.278Z,3.90
2024-03-05T00:44:18.704Z,5.05
2024-03-05T00:46:45.234Z,4.82
2024-03-05T00:49:13.878Z,4.72
2024-03-05T00:51:41.430Z,3.17
2024-03-05T00:54:07.912Z,4.30
2024-03-05T00:56:37.086Z,5.75
2024-03-05T00:59:04.257Z,4.30
2024-03-05T01:01:31.202Z,4.03
2024-03-05T01:03:59.257Z,4.05
2024-03-05T01:06:25.687Z,5.80
2024-03-05T01:08:52.213Z,4.60
2024-03-05T01:11:18.884Z,2.67
2024-03-05T01:13:45.464Z,5.63
2024-03-05T01:16:12.077Z,3.67
2024-03-05T01:18:38.818Z,3.87
2024-03-05T01:21:07.395Z,4.38
2024-03-05T01:23:34.540Z,4.10
2024-03-05T01:26:01.377Z,3.45
2024-03-05T01:28:31.033Z,4.03
2024-03-05T01:30:59.946Z,3.70
2024-03-05T01:33:26.669Z,5.00
2024-03-05T01:35:53.533Z,4.78
2024-03-05T01:38:22.274Z,4.68
2024-03-05T01:40:49.323Z,4.68
2024-03-05T01:43:16.392Z,3.47
2024-03-05T01:45:44.006Z,3.83
2024-03-05T01:48:12.910Z,4.25
2024-03-05T01:50:39.781Z,7.20
2024-03-05T01:53:12.014Z,4.20
2024-03-05T01:55:40.249Z,4.60
2024-03-05T01:58:10.194Z,5.20
2024-03-05T02:00:37.809Z,3.25
2024-03-05T02:03:06.173Z,5.78
2024-03-05T02:05:34.032Z,3.42
2024-03-05T02:08:03.205Z,7.20
2024-03-05T02:10:32.673Z,5.03
2024-03-05T02:12:59.174Z,5.72
2024-03-05T02:15:25.771Z,4.60
2024-03-05T02:17:52.284Z,5.45
2024-03-05T02:20:18.760Z,4.33
2024-03-05T02:22:47.455Z,5.30
2024-03-05T02:25:16.789Z,5.43
2024-03-05T02:27:45.391Z,4.00
2024-03-05T02:30:13.756Z,3.65
2024-03-05T02:32:42.450Z,4.03
2024-03-05T02:35:10.476Z,5.53
2024-03-05T02:37:41.112Z,4.10
2024-03-05T02:40:15.669Z,3.70
2024-03-05T02:42:43.760Z,6.15
2024-03-05T02:45:12.299Z,4.90
2024-03-05T02:47:43.395Z,5.57
2024-03-05T02:50:10.985Z,6.45
2024-03-05T02:52:41.115Z,4.82
2024-03-05T02:55:11.258Z,7.72
2024-03-05T02:57:42.634Z,6.37
2024-03-05T03:00:10.572Z,5.57
2024-03-05T03:02:38.039Z,4.90
2024-03-05T03:05:06.771Z,4.95
2024-03-05T03:07:34.035Z,7.35
2024-03-05T03:10:00.829Z,4.37
2024-03-05T03:12:27.391Z,5.15
2024-03-05T03:14:54.056Z,5.78
2024-03-05T03:17:20.469Z,5.38
2024-03-05T03:22:18.206Z,5.17
2024-03-05T03:24:44.642Z,4.45
2024-03-05T03:27:12.260Z,7.43
2024-03-05T03:29:41.610Z,6.22
2024-03-05T03:32:11.197Z,4.15
2024-03-05T03:34:41.239Z,6.53
2024-03-05T03:37:10.937Z,6.85
2024-03-05T03:39:37.434Z,7.35
2024-03-05T03:42:04.094Z,6.80
2024-03-05T03:44:30.558Z,6.22
2024-03-05T03:46:57.178Z,7.93
2024-03-05T03:49:27.071Z,9.68
2024-03-05T03:51:54.793Z,6.28
2024-03-05T03:54:22.643Z,6.65
2024-03-05T03:56:49.877Z,8.27
2024-03-05T03:59:16.559Z,14.03
2024-03-05T04:01:47.703Z,12.00
2024-03-05T04:04:14.595Z,10.73
2024-03-05T04:06:41.363Z,6.13
2024-03-05T04:09:14.834Z,11.05
2024-03-05T04:11:44.811Z,11.73
2024-03-05T04:14:11.389Z,13.15
2024-03-05T04:16:41.817Z,11.27
2024-03-05T04:19:08.607Z,11.07
2024-03-05T04:21:45.759Z,13.75
2024-03-05T04:24:14.386Z,17.10
2024-03-05T04:26:42.659Z,14.48
2024-03-05T04:29:18.003Z,16.40
2024-03-05T04:31:50.677Z,9.93
2024-03-05T04:34:22.244Z,11.43
2024-03-05T04:36:53.793Z,9.13
2024-03-05T04:39:23.285Z,12.35
2024-03-05T04:41:49.757Z,9.73
2024-03-05T04:44:16.213Z,11.55
2024-03-05T04:46:42.665Z,13.88
2024-03-05T04:49:09.689Z,10.80
2024-03-05T04:51:36.383Z,11.48
2024-03-05T04:54:03.240Z,8.15
2024-03-05T04:56:29.865Z,10.57
2024-03-05T04:58:56.447Z,8.15
2024-03-05T05:01:23.123Z,12.23
2024-03-05T05:03:49.749Z,9.88
2024-03-05T05:06:16.664Z,12.82
2024-03-05T05:08:43.456Z,7.70
2024-03-05T05:11:10.243Z,9.15
2024-03-05T05:13:36.866Z,10.40
2024-03-05T05:16:03.570Z,12.40
2024-03-05T05:18:30.051Z,10.55
2024-03-05T05:20:57.071Z,13.98
2024-03-05T05:23:23.511Z,12.13
2024-03-05T05:25:50.006Z,11.87
2024-03-05T05:28:16.572Z,10.85
2024-03-05T05:30:43.602Z,13.32
2024-03-05T05:33:10.101Z,11.98
2024-03-05T05:35:38.788Z,9.60
2024-03-05T05:38:05.754Z,10.10
2024-03-05T05:40:32.397Z,10.27
2024-03-05T05:42:59.689Z,11.02
2024-03-05T05:45:26.299Z,13.05
2024-03-05T05:47:53.575Z,12.50
2024-03-05T05:50:23.153Z,13.70
2024-03-05T05:52:53.816Z,15.07
2024-03-05T05:55:25.321Z,16.25
2024-03-05T05:57:53.364Z,16.52
2024-03-05T06:00:25.857Z,12.80
2024-03-05T06:02:56.548Z,12.83
2024-03-05T06:05:27.522Z,16.40
2024-03-05T06:07:55.036Z,13.52
2024-03-05T06:10:25.045Z,15.57
2024-03-05T06:12:51.979Z,15.57
2024-03-05T06:15:18.661Z,13.20
2024-03-05T06:17:46.276Z,16.42
2024-03-05T06:20:14.775Z,15.45
2024-03-05T06:22:43.390Z,15.90
2024-03-05T06:25:11.053Z,19.90
2024-03-05T06:27:37.634Z,22.47
2024-03-05T06:30:08.720Z,17.00
2024-03-05T06:32:38.997Z,18.30
2024-03-05T06:35:06.842Z,16.65
2024-03-05T06:37:33.794Z,16.00
2024-03-05T06:40:00.613Z,15.73
2024-03-05T06:42:31.449Z,14.73
2024-03-05T06:45:06.739Z,14.93
2024-03-05T06:47:40.424Z,18.10
2024-03-05T06:50:08.882Z,18.33
2024-03-05T06:52:54.736Z,15.60
2024-03-05T06:55:40.068Z,19.10
2024-03-05T06:58:06.995Z,18.50
2024-03-05T07:00:33.496Z,18.38
2024-03-05T07:03:00.582Z,22.55
2024-03-05T07:05:28.010Z,18.83
2024-03-05T07:07:54.965Z,20.67
2024-03-05T07:10:22.649Z,18.20
2024-03-05T07:12:51.992Z,17.73
2024-03-05T07:15:18.755Z,21.23
2024-03-05T07:17:45.367Z,21.43
2024-03-05T07:20:23.682Z,23.35
2024-03-05T07:22:51.500Z,20.40
2024-03-05T07:29:04.185Z,16.48
2024-03-05T07:31:31.161Z,20.37
2024-03-05T07:33:57.726Z,19.73
2024-03-05T07:36:24.302Z,20.77
2024-03-05T07:38:50.974Z,19.83
2024-03-05T07:41:29.732Z,22.45
2024-03-05T07:44:02.079Z,18.50
2024-03-05T07:47:43.466Z,24.15
2024-03-05T07:50:13.504Z,23.88
2024-03-05T07:52:41.021Z,24.60
2024-03-05T07:55:10.910Z,24.30
2024-03-05T07:57:40.569Z,24.93
2024-03-05T08:00:14.849Z,29.42
2024-03-05T08:02:48.555Z,22.52
2024-03-05T08:05:18.644Z,25.75
2024-03-05T08:07:46.654Z,29.50
2024-03-05T08:10:14.028Z,29.70
2024-03-05T08:12:44.942Z,31.58
2024-03-05T08:15:13.604Z,31.77
2024-03-05T08:17:41.874Z,26.27
2024-03-05T08:20:09.125Z,30.80
2024-03-05T08:22:35.922Z,33.97
2024-03-05T08:25:10.471Z,32.17
2024-03-05T08:27:40.342Z,33.85
2024-03-05T08:30:10.805Z,32.60
2024-03-05T08:32:40.685Z,37.42
2024-03-05T08:35:11.075Z,37.47
2024-03-05T08:37:37.897Z,36.17
2024-03-05T08:40:05.667Z,33.65
2024-03-05T08:42:33.070Z,31.33
2024-03-05T08:44:59.697Z,33.45
2024-03-05T08:47:26.310Z,29.83
2024-03-05T08:49:53.431Z,33.28
2024-03-05T08:52:21.353Z,30.83
2024-03-05T08:54:48.066Z,28.27
2024-03-05T08:57:14.632Z,32.63
2024-03-05T08:59:41.209Z,32.30
2024-03-05T09:02:07.793Z,29.42
2024-03-05T09:04:34.390Z,28.85
2024-03-05T09:07:02.702Z,32.20
2024-03-05T09:09:32.156Z,28.85
2024-03-05T09:12:01.720Z,27.10
2024-03-05T09:14:28.353Z,27.30
2024-03-05T09:16:54.947Z,28.52
2024-03-05T09:19:25.107Z,24.80
2024-03-05T09:21:51.752Z,30.52
2024-03-05T09:24:20.495Z,27.70
2024-03-05T09:26:48.626Z,29.30
2024-03-05T09:29:16.818Z,32.25
2024-03-05T09:31:44.248Z,37.35
2024-03-05T09:34:11.022Z,33.30
2024-03-05T09:36:38.228Z,34.10
2024-03-05T09:42:45.738Z,34.13
2024-03-05T09:45:18.716Z,37.00
2024-03-05T09:47:48.962Z,39.35
2024-03-05T09:50:17.932Z,38.90
2024-03-05T09:52:47.497Z,35.53
2024-03-05T09:55:15.382Z,35.22
2024-03-05T09:57:42.028Z,33.65
2024-03-05T10:00:11.658Z,34.97
2024-03-05T10:02:39.632Z,38.40
2024-03-05T10:05:10.693Z,39.30
2024-03-05T10:07:37.724Z,40.85
2024-03-05T10:10:05.255Z,37.72
2024-03-05T10:12:31.877Z,44.45
2024-03-05T10:15:22.637Z,40.97
2024-03-05T10:17:51.886Z,40.85
2024-03-05T10:20:35.535Z,41.13
2024-03-05T10:23:05.177Z,33.75
2024-03-05T10:25:37.062Z,39.67
2024-03-05T10:28:04.956Z,38.43
2024-03-05T10:30:44.047Z,38.00
2024-03-05T10:33:11.485Z,32.47
2024-03-05T10:35:39.494Z,35.13
2024-03-05T10:38:10.145Z,32.65
2024-03-05T10:40:37.734Z,33.63
2024-03-05T10:43:06.576Z,35.60
2024-03-05T10:45:42.351Z,34.22
2024-03-05T10:48:11.295Z,32.95
2024-03-05T10:50:40.971Z,32.17
2024-03-05T10:53:11.092Z,36.77
2024-03-05T10:55:39.115Z,36.95
2024-03-05T10:58:12.338Z,34.58
2024-03-05T11:00:40.349Z,34.63
2024-03-05T11:03:11.245Z,37.17
2024-03-05T11:05:43.806Z,31.97
2024-03-05T11:08:13.421Z,35.58
2024-03-05T11:10:43.289Z,39.60
2024-03-05T11:13:12.997Z,33.72
2024-03-05T11:15:40.365Z,38.03
2024-03-05T11:18:29.884Z,33.27
2024-03-05T11:20:56.575Z,31.33
2024-03-05T11:23:27.886Z,31.42
2024-03-05T11:26:02.028Z,38.40
2024-03-05T11:28:28.568Z,32.53
2024-03-05T11:31:09.882Z,36.03
2024-03-05T11:33:36.442Z,32.75
2024-03-05T11:36:14.105Z,32.92
2024-03-05T11:38:56.677Z,33.08
2024-03-05T11:41:27.076Z,30.02
2024-03-05T11:43:54.058Z,29.63
2024-03-05T11:46:40.369Z,36.90
2024-03-05T11:49:08.096Z,31.05
2024-03-05T11:51:41.614Z,28.80
2024-03-05T11:54:09.819Z,30.48
2024-03-05T11:56:37.731Z,33.83
2024-03-05T11:59:04.626Z,32.45
2024-03-05T12:01:31.522Z,32.45
2024-03-05T12:04:01.877Z,34.58
2024-03-05T12:06:28.531Z,33.95
2024-03-05T12:08:58.097Z,35.57
2024-03-05T12:11:24.809Z,33.60
2024-03-05T12:13:51.403Z,32.15
2024-03-05T12:16:17.972Z,31.17
2024-03-05T12:18:44.458Z,35.22
2024-03-05T12:21:11.822Z,31.50
2024-03-05T12:23:42.040Z,30.75
2024-03-05T12:26:10.482Z,32.20
2024-03-05T12:28:37.267Z,36.03
2024-03-05T12:31:04.308Z,35.15
2024-03-05T12:33:31.575Z,33.23
2024-03-05T12:35:59.448Z,33.75
2024-03-05T12:38:26.163Z,34.47
2024-03-05T12:41:02.167Z,35.13
2024-03-05T12:43:30.160Z,32.20
2024-03-05T12:46:03.891Z,35.73
2024-03-05T12:48:33.794Z,33.30
2024-03-05T12:51:01.049Z,34.88
2024-03-05T12:53:27.716Z,33.95
2024-03-05T12:56:02.593Z,34.08
2024-03-05T12:58:41.379Z,30.27
2024-03-05T13:01:08.438Z,32.03
2024-03-05T13:03:35.233Z,31.70
2024-03-05T13:06:02.023Z,28.25
2024-03-05T13:08:28.882Z,24.42
2024-03-05T13:10:56.829Z,25.27
2024-03-05T13:13:23.576Z,24.55
2024-03-05T13:15:50.451Z,26.02
2024-03-05T13:18:17.438Z,24.90
2024-03-05T13:20:44.128Z,30.17
2024-03-05T13:23:10.656Z,30.13
2024-03-05T13:25:37.154Z,24.17
2024-03-05T13:28:04.929Z,25.38
2024-03-05T13:30:31.720Z,25.42
2024-03-05T13:33:02.695Z,27.45
2024-03-05T13:35:31.789Z,31.23
2024-03-05T13:37:59.015Z,26.83
2024-03-05T13:40:25.739Z,26.25
2024-03-05T13:42:52.279Z,31.00
2024-03-05T13:45:19.595Z,28.05
2024-03-05T13:47:46.960Z,26.60
2024-03-05T13:50:15.106Z,26.15
2024-03-05T13:52:46.352Z,27.50
2024-03-05T13:55:14.988Z,26.83
2024-03-05T13:57:41.704Z,25.10
2024-03-05T14:00:10.464Z,25.60
2024-03-05T14:02:37.001Z,28.25
2024-03-05T14:05:04.572Z,24.40
2024-03-05T14:07:31.946Z,23.60
2024-03-05T14:09:58.862Z,24.40
2024-03-05T14:12:25.624Z,23.67
2024-03-05T14:14:52.095Z,25.05
2024-03-05T14:17:18.644Z,23.13
2024-03-05T14:19:45.283Z,23.80
2024-03-05T14:22:12.446Z,21.65
2024-03-05T14:24:39.479Z,20.87
2024-03-05T14:27:06.469Z,22.52
2024-03-05T14:29:33.049Z,19.10
2024-03-05T14:31:59.630Z,24.83
2024-03-05T14:34:28.266Z,19.45
2024-03-05T14:36:54.869Z,24.30
2024-03-05T14:39:22.457Z,23.55
2024-03-05T14:41:49.044Z,22.85
2024-03-05T14:44:16.290Z,25.27
2024-03-05T14:46:43.298Z,26.50
2024-03-05T14:49:12.334Z,22.37
2024-03-05T14:51:39.256Z,22.73
2024-03-05T14:54:08.250Z,22.13
2024-03-05T14:56:37.570Z,27.17
2024-03-05T14:59:05.811Z,23.45
2024-03-05T15:01:33.577Z,25.90
2024-03-05T15:04:01.497Z,25.00
2024-03-05T15:06:28.126Z,25.25
2024-03-05T15:08:54.548Z,28.10
2024-03-05T15:11:21.522Z,25.13
2024-03-05T15:13:48.085Z,27.17
2024-03-05T15:16:15.014Z,27.30
2024-03-05T15:18:41.749Z,27.15
2024-03-05T15:21:15.255Z,26.92
2024-03-05T15:23:42.496Z,23.60
2024-03-05T15:26:11.698Z,23.33
2024-03-05T15:28:38.394Z,26.95
2024-03-05T15:31:10.059Z,26.63
2024-03-05T15:33:41.590Z,28.65
2024-03-05T15:36:09.262Z,27.30
2024-03-05T15:38:36.061Z,23.63
2024-03-05T15:41:05.761Z,23.95
2024-03-05T15:43:34.455Z,25.45
2024-03-05T15:46:01.302Z,21.35
2024-03-05T15:48:27.907Z,25.25
2024-03-05T15:50:54.408Z,22.17
2024-03-05T15:53:25.703Z,23.52
2024-03-05T15:56:02.307Z,20.25
2024-03-05T15:58:44.743Z,24.08
2024-03-05T16:01:12.759Z,22.05
2024-03-05T16:03:52.632Z,22.13
2024-03-05T16:06:29.245Z,22.35
2024-03-05T16:08:55.868Z,22.50
2024-03-05T16:11:25.854Z,23.15
2024-03-05T16:13:55.233Z,21.98
2024-03-05T16:16:23.556Z,24.53
2024-03-05T16:18:50.160Z,24.23
2024-03-05T16:21:17.520Z,25.17
2024-03-05T16:23:44.799Z,21.23
2024-03-05T16:26:11.353Z,23.50
2024-03-05T16:28:39.297Z,22.60
2024-03-05T16:31:06.070Z,26.13
2024-03-05T16:33:33.739Z,22.05
2024-03-05T16:36:00.228Z,19.85
2024-03-05T16:38:26.827Z,24.35
2024-03-05T16:40:54.219Z,22.37
2024-03-05T16:43:20.797Z,29.27
2024-03-05T16:45:47.962Z,24.73
2024-03-05T16:48:14.560Z,23.63
2024-03-05T16:50:41.243Z,26.08
2024-03-05T16:53:09.423Z,22.77
2024-03-05T16:55:36.535Z,24.02
2024-03-05T16:58:05.428Z,23.17
2024-03-05T17:00:47.782Z,23.17
2024-03-05T17:03:20.212Z,26.20
2024-03-05T17:05:53.877Z,21.53
2024-03-05T17:08:21.386Z,26.33
2024-03-05T17:10:49.255Z,28.30
2024-03-05T17:13:20.420Z,24.50
2024-03-05T17:15:52.756Z,23.35
2024-03-05T17:18:20.272Z,27.10
2024-03-05T17:20:46.914Z,24.92
2024-03-05T17:23:21.318Z,24.48
2024-03-05T17:25:51.414Z,28.92
2024-03-05T17:28:18.410Z,24.92
2024-03-05T17:30:45.026Z,25.67
2024-03-05T17:33:14.992Z,24.08
2024-03-05T17:35:42.452Z,24.60
2024-03-05T17:38:11.191Z,24.60
2024-03-05T17:40:38.129Z,25.67
2024-03-05T17:43:05.149Z,25.87
2024-03-05T17:45:32.973Z,24.83
2024-03-05T17:48:06.793Z,23.90
2024-03-05T17:50:37.312Z,20.90
2024-03-05T17:53:06.597Z,23.45
2024-03-05T17:55:37.268Z,23.23
2024-03-05T17:58:05.513Z,25.75
2024-03-05T18:00:42.726Z,28.00
2024-03-05T18:03:11.814Z,22.95
2024-03-05T18:05:38.885Z,23.80
2024-03-05T18:08:05.838Z,24.80
2024-03-05T18:10:35.630Z,25.42
2024-03-05T18:13:03.443Z,25.48
2024-03-05T18:15:31.462Z,26.15
2024-03-05T18:17:58.399Z,31.33
2024-03-05T18:20:24.958Z,26.93
2024-03-05T18:22:51.506Z,28.45
2024-03-05T18:25:18.658Z,23.10
2024-03-05T18:27:54.456Z,30.58
2024-03-05T18:30:34.085Z,23.90
2024-03-05T18:33:01.553Z,24.80
2024-03-05T18:35:29.242Z,24.70
2024-03-05T18:37:55.772Z,24.27
2024-03-05T18:40:23.136Z,24.70
2024-03-05T18:42:51.564Z,27.05
2024-03-05T18:45:21.086Z,25.87
2024-03-05T18:47:59.100Z,25.38
2024-03-05T18:50:30.439Z,24.00
2024-03-05T18:53:02.479Z,28.10
2024-03-05T18:55:31.409Z,28.17
2024-03-05T18:57:58.138Z,27.00
2024-03-05T19:00:24.961Z,26.70
2024-03-05T19:02:54.570Z,28.30
2024-03-05T19:05:23.053Z,31.30
2024-03-05T19:07:50.864Z,31.27
2024-03-05T19:10:19.069Z,23.90
2024-03-05T19:12:46.440Z,24.45
2024-03-05T19:15:14.110Z,26.08
2024-03-05T19:17:42.050Z,27.88
2024-03-05T19:20:11.097Z,30.35
2024-03-05T19:22:39.655Z,29.13
2024-03-05T19:25:11.589Z,26.00
2024-03-05T19:27:39.291Z,25.73
2024-03-05T19:30:11.447Z,28.52
2024-03-05T19:32:41.567Z,24.58
2024-03-05T19:35:12.565Z,23.07
2024-03-05T19:37:43.889Z,25.98
2024-03-05T19:40:17.415Z,23.95
2024-03-05T19:42:45.448Z,24.77
2024-03-05T19:45:12.853Z,21.50
2024-03-05T19:47:39.481Z,26.33
2024-03-05T19:50:06.945Z,21.77
2024-03-05T19:52:34.897Z,26.80
2024-03-05T19:55:01.510Z,23.25
2024-03-05T19:57:28.314Z,22.40
2024-03-05T20:00:01.192Z,24.17
2024-03-05T20:02:29.272Z,24.80
2024-03-05T20:04:55.871Z,26.67
2024-03-05T20:07:25.412Z,26.48
2024-03-05T20:09:51.852Z,24.02
2024-03-05T20:12:18.783Z,22.70
2024-03-05T20:14:45.572Z,23.20
2024-03-05T20:17:12.326Z,22.38
2024-03-05T20:19:40.367Z,25.38
2024-03-05T20:22:09.056Z,22.40
2024-03-05T20:24:36.063Z,24.73
2024-03-05T20:27:03.688Z,26.70
2024-03-05T20:29:33.739Z,22.55
2024-03-05T20:32:01.800Z,22.92
2024-03-05T20:34:28.724Z,24.45
2024-03-05T20:36:55.653Z,24.03
2024-03-05T20:39:22.333Z,24.35
2024-03-05T20:41:48.915Z,22.67
2024-03-05T20:44:15.974Z,16.95
2024-03-05T20:46:43.198Z,19.48
2024-03-05T20:49:14.744Z,13.80
2024-03-05T20:51:41.203Z,12.88
2024-03-05T20:54:07.713Z,15.80
2024-03-05T20:56:34.228Z,15.90
2024-03-05T20:59:01.107Z,17.52
2024-03-05T21:01:27.846Z,14.47
2024-03-05T21:03:54.962Z,19.48
2024-03-05T21:06:23.000Z,17.55
2024-03-05T21:08:49.603Z,21.33
2024-03-05T21:11:16.459Z,19.70
2024-03-05T21:13:43.341Z,21.80
2024-03-05T21:16:11.190Z,21.92
2024-03-05T21:18:38.145Z,20.33
2024-03-05T21:21:06.060Z,20.60
2024-03-05T21:23:35.039Z,23.63
2024-03-05T21:26:13.926Z,19.70
2024-03-05T21:28:51.532Z,24.40
2024-03-05T21:31:18.905Z,21.08
2024-03-05T21:33:45.559Z,19.25
2024-03-05T21:36:12.223Z,20.63
2024-03-05T21:38:38.692Z,19.33
2024-03-05T21:41:09.919Z,25.13
2024-03-05T21:43:36.672Z,22.05
2024-03-05T21:46:05.136Z,21.90
2024-03-05T21:48:31.798Z,22.10
2024-03-05T21:51:06.291Z,23.97
2024-03-05T21:53:36.982Z,22.80
2024-03-05T21:56:03.896Z,22.15
2024-03-05T21:58:30.473Z,22.92
2024-03-05T22:00:57.008Z,26.08
2024-03-05T22:03:23.614Z,27.27
2024-03-05T22:05:50.117Z,24.90
2024-03-05T22:08:16.745Z,25.63
2024-03-05T22:10:43.371Z,26.33
2024-03-05T22:13:09.965Z,24.98
2024-03-05T22:15:36.433Z,25.37
2024-03-05T22:18:03.020Z,27.65
2024-03-05T22:20:29.587Z,21.02
2024-03-05T22:22:56.123Z,20.83
2024-03-05T22:25:22.635Z,22.60
2024-03-05T22:27:49.185Z,27.50
2024-03-05T22:30:15.825Z,25.85
2024-03-05T22:32:42.239Z,24.55
2024-03-05T22:35:11.368Z,26.98
2024-03-05T22:37:41.450Z,22.98
2024-03-05T22:40:09.764Z,27.33
2024-03-05T22:42:36.294Z,24.88
2024-03-05T22:45:04.064Z,27.42
2024-03-05T22:47:30.711Z,30.70
2024-03-05T22:49:58.065Z,25.20
2024-03-05T22:52:24.736Z,23.03
2024-03-05T22:54:51.339Z,27.98
2024-03-05T22:57:17.952Z,22.45
2024-03-05T22:59:44.508Z,27.27
2024-03-05T23:02:12.143Z,23.85
2024-03-05T23:04:39.078Z,23.23
2024-03-05T23:07:06.908Z,25.48
2024-03-05T23:09:35.627Z,22.48
2024-03-05T23:12:02.188Z,20.95
2024-03-05T23:14:28.786Z,21.73
2024-03-05T23:16:55.272Z,26.53
2024-03-05T23:19:21.885Z,29.20
2024-03-05T23:21:48.411Z,27.67
2024-03-05T23:24:14.873Z,29.70
2024-03-05T23:26:41.317Z,32.15
2024-03-05T23:29:07.867Z,27.27
2024-03-05T23:31:37.234Z,30.40
2024-03-05T23:34:04.054Z,29.95
2024-03-05T23:36:30.495Z,30.50
2024-03-05T23:38:57.001Z,29.70
2024-03-05T23:41:29.245Z,29.13
2024-03-05T23:43:58.968Z,33.08
2024-03-05T23:46:25.625Z,28.95
2024-03-05T23:48:52.068Z,28.67
2024-03-05T23:51:18.714Z,28.00
2024-03-05T23:53:45.364Z,30.33
2024-03-05T23:56:12.205Z,28.50
2024-03-05T23:58:40.123Z,28.52
